Main page
METAR-TAF:

METAR-TAF

Airports :

Çiğli Air Base

Izmir, Turkey

latitude: 38-30N, longitude: 027-01E, elevation: 5 m

METAR: missing

Time: 11:09 (08:09 UTC)

Forecast

The report was made 3 hours and 29 minutes ago, at 04:40 UTC
Forecast valid from 23 at 06 UTC to 23 at 15 UTC
Wind 2 kt from variable directions
Visibility: 5000 m
mist
Becoming
from 23 at 07 UTC to 23 at 08 UTC
Visibility 10 km or more
no clouds below 1500 m and no cumulonimbus

TAF: LTBL 230440Z 2306/2315 VRB02KT 5000 BR NSC BECMG 2307/2308 CAVOK

Weather observations and forecasts of more than 4000 airports (METAR and TAF reports).

The available stations are represented by yellow and red dots on the map.

Hover mouse over dot to see the name of the station.

Then click to see weather observations and forecasts.

To change the map : click on the green buttons with a black cross to zoom in, on the green button with a dash to zoom out, or on the green arrows for adjacent maps.


METAR-TAF: